Time;durP1;ratioP1;P1;durP2;ratioP2;P2;SDS_P1;SDS_P2;PMS_P1;PMS_P2;Temp;Humidity;BMP_temperature;BMP_pressure;BME280_temperature;BME280_humidity;BME280_pressure;Samples;Min_cycle;Max_cycle;Signal;HPM_P1;HPM_P2
2021/10/27 00:02:16;;;;;;;1.90;1.67;;;;;;;;;;5033864;28;20326;-46
2021/10/27 00:04:42;;;;;;;1.95;1.80;;;;;;;;;;5034220;28;20290;-46
2021/10/27 00:07:08;;;;;;;2.50;1.98;;;;;;;;;;5030487;28;20184;-46
2021/10/27 00:09:34;;;;;;;2.13;1.73;;;;;;;;;;5032396;28;20175;-46
2021/10/27 00:12:00;;;;;;;2.25;1.55;;;;;;;;;;5032893;28;20180;-46
2021/10/27 00:14:26;;;;;;;2.38;1.77;;;;;;;;;;5034001;28;20229;-46
2021/10/27 00:16:52;;;;;;;1.88;1.70;;;;;;;;;;5034425;28;20539;-46
2021/10/27 00:19:18;;;;;;;3.40;1.40;;;;;;;;;;5034096;28;20210;-46
2021/10/27 00:21:44;;;;;;;2.15;1.65;;;;;;;;;;5034059;28;20226;-46
2021/10/27 00:24:11;;;;;;;2.10;1.73;;;;;;;;;;5031953;28;20211;-46
2021/10/27 00:26:37;;;;;;;1.70;1.60;;;;;;;;;;5033554;28;20184;-46
2021/10/27 00:29:03;;;;;;;1.58;1.48;;;;;;;;;;5034306;28;20180;-46
2021/10/27 00:31:29;;;;;;;1.70;1.60;;;;;;;;;;5031235;28;20172;-46
2021/10/27 00:33:55;;;;;;;1.85;1.67;;;;;;;;;;5031928;28;20183;-47
2021/10/27 00:36:21;;;;;;;4.05;1.55;;;;;;;;;;5034392;28;20179;-46
2021/10/27 00:38:47;;;;;;;2.38;1.65;;;;;;;;;;5032774;28;20187;-46
2021/10/27 00:41:13;;;;;;;1.77;1.50;;;;;;;;;;5018572;28;20184;-46
2021/10/27 00:43:40;;;;;;;1.80;1.70;;;;;;;;;;5031369;28;20207;-46
2021/10/27 00:46:16;;;;;;;2.15;1.60;;;;;;;;;;5033992;28;20188;-46
2021/10/27 00:48:42;;;;;;;2.08;1.70;;;;;;;;;;5032609;28;20206;-46
2021/10/27 00:51:08;;;;;;;3.03;1.67;;;;;;;;;;5033683;28;20501;-46
2021/10/27 00:53:35;;;;;;;1.60;1.50;;;;;;;;;;5033264;28;20218;-46
2021/10/27 00:56:01;;;;;;;1.90;1.70;;;;;;;;;;5033670;28;20168;-46
2021/10/27 00:58:27;;;;;;;2.15;1.70;;;;;;;;;;5029458;28;20230;-46
2021/10/27 01:00:53;;;;;;;1.60;1.50;;;;;;;;;;5033506;28;20192;-46
2021/10/27 01:03:19;;;;;;;1.70;1.60;;;;;;;;;;5032379;28;20583;-46
2021/10/27 01:05:45;;;;;;;1.77;1.63;;;;;;;;;;5033431;28;20215;-46
2021/10/27 01:08:11;;;;;;;2.00;1.80;;;;;;;;;;5033841;28;20180;-46
2021/10/27 01:10:37;;;;;;;1.60;1.50;;;;;;;;;;5033956;28;20176;-46
2021/10/27 01:13:03;;;;;;;1.58;1.48;;;;;;;;;;5027866;28;20234;-46
2021/10/27 01:15:31;;;;;;;1.65;1.55;;;;;;;;;;5019322;28;20188;-46
2021/10/27 01:17:57;;;;;;;1.80;1.70;;;;;;;;;;5044060;28;20225;-46
2021/10/27 01:20:23;;;;;;;2.50;1.85;;;;;;;;;;5024191;28;20180;-46
2021/10/27 01:22:49;;;;;;;1.77;1.40;;;;;;;;;;5043501;28;20218;-47
2021/10/27 01:25:15;;;;;;;1.98;1.40;;;;;;;;;;5037499;28;20237;-46
2021/10/27 01:27:42;;;;;;;1.77;1.65;;;;;;;;;;5036958;28;20168;-46
2021/10/27 01:30:13;;;;;;;1.73;1.63;;;;;;;;;;5035500;28;20180;-46
2021/10/27 01:32:39;;;;;;;1.77;1.40;;;;;;;;;;5037301;28;20179;-46
2021/10/27 01:35:06;;;;;;;1.55;1.45;;;;;;;;;;5036038;28;20183;-46
2021/10/27 01:37:32;;;;;;;1.67;1.58;;;;;;;;;;5037262;28;20198;-46
2021/10/27 01:39:58;;;;;;;1.92;1.40;;;;;;;;;;5036963;28;20726;-46
2021/10/27 01:42:24;;;;;;;1.73;1.33;;;;;;;;;;5036710;28;20180;-47
2021/10/27 01:44:50;;;;;;;1.60;1.50;;;;;;;;;;5017550;28;20266;-46
2021/10/27 01:47:16;;;;;;;1.85;1.70;;;;;;;;;;5031173;28;20262;-48
2021/10/27 01:49:43;;;;;;;1.63;1.50;;;;;;;;;;5036329;28;20234;-46
2021/10/27 01:52:10;;;;;;;1.73;1.35;;;;;;;;;;5036979;28;20494;-46
2021/10/27 01:54:36;;;;;;;1.30;1.20;;;;;;;;;;5036629;28;20249;-46
2021/10/27 01:57:02;;;;;;;1.60;1.50;;;;;;;;;;5031173;28;20185;-46
2021/10/27 01:59:28;;;;;;;3.75;1.75;;;;;;;;;;5025719;28;20425;-46
2021/10/27 02:01:55;;;;;;;1.60;1.50;;;;;;;;;;5036376;28;20271;-46
2021/10/27 02:04:21;;;;;;;1.60;1.50;;;;;;;;;;5035990;28;20214;-46
2021/10/27 02:06:47;;;;;;;1.65;1.55;;;;;;;;;;5036821;28;20164;-46
2021/10/27 02:09:16;;;;;;;1.50;1.40;;;;;;;;;;5035453;28;20270;-46
2021/10/27 02:11:42;;;;;;;1.73;1.60;;;;;;;;;;5035551;28;20234;-46
2021/10/27 02:14:08;;;;;;;1.42;1.33;;;;;;;;;;5036078;28;20192;-46
2021/10/27 02:16:34;;;;;;;1.40;1.30;;;;;;;;;;5036229;28;20172;-46
2021/10/27 02:19:00;;;;;;;2.55;1.40;;;;;;;;;;5036427;28;20187;-46
2021/10/27 02:21:26;;;;;;;1.88;1.60;;;;;;;;;;5036527;28;20476;-46
2021/10/27 02:23:53;;;;;;;1.48;1.38;;;;;;;;;;5034673;28;20187;-46
2021/10/27 02:26:20;;;;;;;2.45;1.50;;;;;;;;;;5025060;28;20202;-46
2021/10/27 02:28:46;;;;;;;1.95;1.67;;;;;;;;;;5036202;28;20184;-46
2021/10/27 02:31:12;;;;;;;1.38;1.27;;;;;;;;;;5035806;28;20198;-46
2021/10/27 02:33:38;;;;;;;1.55;1.40;;;;;;;;;;5034729;28;20583;-46
2021/10/27 02:36:04;;;;;;;1.40;1.30;;;;;;;;;;5035880;28;20186;-46
2021/10/27 02:38:30;;;;;;;1.50;1.40;;;;;;;;;;5036004;28;20184;-46
2021/10/27 02:40:56;;;;;;;1.33;1.23;;;;;;;;;;5036122;28;20263;-46
2021/10/27 02:43:22;;;;;;;1.52;1.35;;;;;;;;;;5035116;28;20195;-46
2021/10/27 02:45:49;;;;;;;1.65;1.40;;;;;;;;;;5034666;28;20483;-46
2021/10/27 02:48:15;;;;;;;2.13;1.40;;;;;;;;;;5032149;28;20547;-46
2021/10/27 02:50:42;;;;;;;1.38;1.27;;;;;;;;;;5035265;28;20176;-46
2021/10/27 02:53:08;;;;;;;1.50;1.40;;;;;;;;;;5035187;28;20314;-46
2021/10/27 02:55:35;;;;;;;1.52;1.30;;;;;;;;;;5035525;28;20183;-46
2021/10/27 02:58:01;;;;;;;1.40;1.30;;;;;;;;;;5035976;28;20180;-46
2021/10/27 03:00:27;;;;;;;1.33;1.23;;;;;;;;;;5035429;28;20180;-46
2021/10/27 03:02:54;;;;;;;1.30;1.20;;;;;;;;;;5035180;28;20271;-46
2021/10/27 03:05:23;;;;;;;1.27;1.27;;;;;;;;;;5035618;28;20280;-46
2021/10/27 03:07:49;;;;;;;1.60;1.50;;;;;;;;;;5026085;28;20183;-46
2021/10/27 03:10:16;;;;;;;1.20;1.10;;;;;;;;;;5035723;28;20180;-46
2021/10/27 03:12:42;;;;;;;1.30;1.20;;;;;;;;;;5035635;28;20421;-46
2021/10/27 03:15:08;;;;;;;1.30;1.20;;;;;;;;;;5015128;28;20177;-46
2021/10/27 03:17:35;;;;;;;1.38;1.30;;;;;;;;;;5023623;28;20211;-46
2021/10/27 03:20:00;;;;;;;1.38;1.27;;;;;;;;;;5029750;28;20200;-46
2021/10/27 03:22:27;;;;;;;1.40;1.30;;;;;;;;;;5035635;28;20262;-46
2021/10/27 03:24:53;;;;;;;1.30;1.20;;;;;;;;;;5034531;28;20274;-46
2021/10/27 03:27:19;;;;;;;1.67;1.58;;;;;;;;;;5034513;28;20226;-46
2021/10/27 03:29:45;;;;;;;1.30;1.20;;;;;;;;;;5034880;28;20614;-46
2021/10/27 03:32:11;;;;;;;1.35;1.25;;;;;;;;;;5034872;28;20176;-46
2021/10/27 03:34:37;;;;;;;1.30;1.20;;;;;;;;;;5033894;28;20176;-47
2021/10/27 03:37:03;;;;;;;1.42;1.30;;;;;;;;;;5034443;28;20184;-46
2021/10/27 03:39:29;;;;;;;1.30;1.20;;;;;;;;;;5034707;28;20199;-46
2021/10/27 03:41:55;;;;;;;1.00;1.00;;;;;;;;;;5034853;28;20188;-46
2021/10/27 03:44:21;;;;;;;3.70;1.25;;;;;;;;;;5034220;28;20239;-46
2021/10/27 03:46:49;;;;;;;1.20;1.10;;;;;;;;;;5033069;28;20500;-46
2021/10/27 03:49:15;;;;;;;1.20;1.10;;;;;;;;;;5028518;28;20180;-46
2021/10/27 03:51:42;;;;;;;1.08;0.98;;;;;;;;;;5034937;28;20187;-46
2021/10/27 03:54:08;;;;;;;1.52;1.20;;;;;;;;;;5033463;28;20638;-46
2021/10/27 03:56:34;;;;;;;1.30;1.20;;;;;;;;;;5034847;28;20298;-46
2021/10/27 03:59:00;;;;;;;1.50;1.40;;;;;;;;;;5033705;28;20187;-46
2021/10/27 04:01:26;;;;;;;1.05;1.05;;;;;;;;;;5030138;28;20631;-46
2021/10/27 04:03:52;;;;;;;1.20;1.10;;;;;;;;;;5032772;28;20199;-46
2021/10/27 04:06:19;;;;;;;1.20;1.10;;;;;;;;;;5034469;28;20231;-46
2021/10/27 04:08:45;;;;;;;3.35;1.50;;;;;;;;;;5033984;28;20536;-46
2021/10/27 04:11:11;;;;;;;4.40;1.33;;;;;;;;;;5034244;28;20226;-46
2021/10/27 04:13:37;;;;;;;1.77;1.48;;;;;;;;;;5033454;28;20180;-46
2021/10/27 04:16:03;;;;;;;2.67;1.70;;;;;;;;;;5033559;28;20180;-46
2021/10/27 04:18:29;;;;;;;1.48;1.20;;;;;;;;;;5034014;28;20190;-46
2021/10/27 04:20:57;;;;;;;2.28;1.30;;;;;;;;;;5034487;28;20446;-46
2021/10/27 04:23:23;;;;;;;4.00;1.80;;;;;;;;;;5033590;28;20187;-46
2021/10/27 04:25:49;;;;;;;2.20;1.48;;;;;;;;;;5034680;28;20629;-46
2021/10/27 04:28:15;;;;;;;5.25;1.95;;;;;;;;;;5036862;28;20168;-46
2021/10/27 04:30:41;;;;;;;9.95;2.15;;;;;;;;;;5036797;28;20422;-46
2021/10/27 04:33:17;;;;;;;8.05;2.30;;;;;;;;;;5036525;28;20254;-46
2021/10/27 04:35:43;;;;;;;3.65;1.88;;;;;;;;;;5036787;28;20191;-46
2021/10/27 04:38:09;;;;;;;8.98;2.25;;;;;;;;;;5036752;28;20175;-46
2021/10/27 04:40:35;;;;;;;2.92;1.80;;;;;;;;;;5036605;28;20168;-46
2021/10/27 04:43:01;;;;;;;4.60;1.88;;;;;;;;;;5036491;28;20168;-46
2021/10/27 04:45:28;;;;;;;3.75;2.05;;;;;;;;;;5036622;28;20200;-46
2021/10/27 04:47:54;;;;;;;3.90;1.95;;;;;;;;;;5036601;28;20164;-46
2021/10/27 04:50:20;;;;;;;10.50;2.13;;;;;;;;;;5036679;28;20171;-46
2021/10/27 04:52:46;;;;;;;5.07;2.30;;;;;;;;;;5035726;28;20226;-46
2021/10/27 04:55:12;;;;;;;3.20;1.80;;;;;;;;;;5033394;28;20226;-46
2021/10/27 04:57:38;;;;;;;4.13;2.03;;;;;;;;;;5033581;28;20191;-46
2021/10/27 05:00:05;;;;;;;4.55;2.22;;;;;;;;;;5037955;28;20204;-46
2021/10/27 05:02:31;;;;;;;4.40;1.92;;;;;;;;;;5037573;28;20505;-46
2021/10/27 05:04:57;;;;;;;4.85;2.05;;;;;;;;;;5037124;28;20191;-46
2021/10/27 05:07:24;;;;;;;4.00;2.05;;;;;;;;;;5037064;28;20179;-47
2021/10/27 05:09:50;;;;;;;6.47;2.00;;;;;;;;;;5036304;28;20172;-46
2021/10/27 05:12:16;;;;;;;7.18;2.22;;;;;;;;;;5037110;28;20195;-46
2021/10/27 05:14:42;;;;;;;4.50;2.20;;;;;;;;;;5037303;28;20180;-46
2021/10/27 05:17:10;;;;;;;3.58;1.75;;;;;;;;;;5035134;28;20187;-47
2021/10/27 05:19:37;;;;;;;5.72;2.25;;;;;;;;;;5037226;28;20199;-47
2021/10/27 05:22:03;;;;;;;5.68;2.20;;;;;;;;;;5035578;28;20428;-46
2021/10/27 05:24:29;;;;;;;4.88;2.30;;;;;;;;;;5034331;28;20242;-46
2021/10/27 05:26:55;;;;;;;3.42;1.95;;;;;;;;;;5020682;28;20558;-47
2021/10/27 05:29:22;;;;;;;6.30;2.03;;;;;;;;;;5037416;28;20282;-47
2021/10/27 05:31:48;;;;;;;4.20;1.90;;;;;;;;;;5037042;28;20198;-46
2021/10/27 05:34:14;;;;;;;3.92;1.88;;;;;;;;;;5036870;28;20278;-46
2021/10/27 05:36:41;;;;;;;2.97;2.10;;;;;;;;;;5036267;28;20576;-46
2021/10/27 05:39:07;;;;;;;4.50;1.80;;;;;;;;;;5032836;28;20274;-46
2021/10/27 05:41:34;;;;;;;3.35;1.98;;;;;;;;;;5034414;28;20587;-46
2021/10/27 05:44:01;;;;;;;5.32;2.17;;;;;;;;;;5036199;28;20638;-46
2021/10/27 05:46:28;;;;;;;3.47;1.77;;;;;;;;;;5037330;28;20184;-46
2021/10/27 05:54:57;;;;;;;3.65;1.83;;;;;;;;;;5018519;28;20490;-46
2021/10/27 05:57:44;;;;;;;2.20;1.80;;;;;;;;;;5033655;28;20190;-47
2021/10/27 06:00:10;;;;;;;3.28;1.67;;;;;;;;;;5055075;28;20499;-46
2021/10/27 06:02:37;;;;;;;4.47;1.70;;;;;;;;;;5042276;28;20269;-46
2021/10/27 06:05:04;;;;;;;3.25;1.85;;;;;;;;;;5036337;28;20222;-46
2021/10/27 06:07:32;;;;;;;3.58;1.60;;;;;;;;;;5035582;28;20179;-46
2021/10/27 06:09:58;;;;;;;2.38;1.38;;;;;;;;;;5035680;28;20160;-46
2021/10/27 06:12:24;;;;;;;4.35;1.60;;;;;;;;;;5036569;28;20176;-46
2021/10/27 06:14:50;;;;;;;3.20;1.75;;;;;;;;;;5035072;28;20582;-46
2021/10/27 06:17:16;;;;;;;2.53;1.40;;;;;;;;;;5036469;28;20184;-46
2021/10/27 06:19:42;;;;;;;2.40;1.70;;;;;;;;;;5036059;28;20179;-46
2021/10/27 06:22:11;;;;;;;2.35;1.40;;;;;;;;;;5036490;28;20226;-46
2021/10/27 06:24:37;;;;;;;1.95;1.45;;;;;;;;;;5035589;28;20249;-46
2021/10/27 06:27:04;;;;;;;2.95;1.55;;;;;;;;;;5035966;28;20597;-46
2021/10/27 06:29:44;;;;;;;2.40;1.73;;;;;;;;;;5023588;28;20184;-46
2021/10/27 06:32:22;;;;;;;2.47;1.73;;;;;;;;;;5021409;28;20566;-46
2021/10/27 06:34:54;;;;;;;1.83;1.40;;;;;;;;;;5035384;28;20210;-46
2021/10/27 06:48:13;;;;;;;2.50;1.50;;;;;;;;;;5032909;28;20183;-46
2021/10/27 06:50:39;;;;;;;3.50;1.70;;;;;;;;;;5035755;28;20179;-46
2021/10/27 06:53:05;;;;;;;2.15;1.33;;;;;;;;;;5035249;28;20180;-46
2021/10/27 06:55:35;;;;;;;3.00;1.50;;;;;;;;;;5035804;28;20266;-46
2021/10/27 06:58:01;;;;;;;2.00;1.40;;;;;;;;;;5035265;28;20610;-46
2021/10/27 07:00:39;;;;;;;1.98;1.33;;;;;;;;;;5035500;28;20195;-46
2021/10/27 07:03:14;;;;;;;2.13;1.42;;;;;;;;;;5034396;28;20286;-46
2021/10/27 07:16:38;;;;;;;2.00;1.40;;;;;;;;;;5035125;28;20209;-46
2021/10/27 07:19:04;;;;;;;1.65;1.48;;;;;;;;;;5029338;28;20191;-46
2021/10/27 07:21:31;;;;;;;2.90;1.40;;;;;;;;;;5034524;28;20172;-46
2021/10/27 07:23:56;;;;;;;1.83;1.45;;;;;;;;;;5034352;28;20172;-46
2021/10/27 07:26:24;;;;;;;2.90;1.52;;;;;;;;;;5035135;28;20686;-46
2021/10/27 07:28:53;;;;;;;2.92;1.50;;;;;;;;;;5035056;28;20191;-46
2021/10/27 07:31:19;;;;;;;1.58;1.30;;;;;;;;;;5035123;28;20190;-46
2021/10/27 07:33:54;;;;;;;1.35;1.25;;;;;;;;;;5033200;28;20266;-46
2021/10/27 07:41:32;;;;;;;1.58;1.48;;;;;;;;;;5034741;28;20795;-46
2021/10/27 07:43:59;;;;;;;3.22;1.73;;;;;;;;;;5034468;28;20176;-46
2021/10/27 07:46:25;;;;;;;1.40;1.30;;;;;;;;;;5034378;28;20235;-46
2021/10/27 07:48:51;;;;;;;1.60;1.17;;;;;;;;;;5033937;28;20192;-46
2021/10/27 07:51:17;;;;;;;1.30;1.20;;;;;;;;;;5020940;28;20192;-47
2021/10/27 07:53:43;;;;;;;1.90;1.50;;;;;;;;;;5031898;28;20255;-46
2021/10/27 07:56:09;;;;;;;1.52;1.30;;;;;;;;;;5034922;28;20246;-46
2021/10/27 07:58:36;;;;;;;1.45;1.15;;;;;;;;;;5036303;28;20578;-46
2021/10/27 08:01:03;;;;;;;1.60;1.30;;;;;;;;;;5034654;28;20179;-46
2021/10/27 08:03:30;;;;;;;1.33;1.20;;;;;;;;;;5049339;28;20570;-46
2021/10/27 08:06:00;;;;;;;1.52;1.23;;;;;;;;;;5053197;28;20690;-46
2021/10/27 08:08:26;;;;;;;1.25;1.00;;;;;;;;;;5034453;28;20183;-46
2021/10/27 08:10:52;;;;;;;1.27;1.17;;;;;;;;;;5034046;28;20565;-46
2021/10/27 08:13:18;;;;;;;1.88;1.30;;;;;;;;;;5034047;28;20180;-46
2021/10/27 08:15:45;;;;;;;1.40;1.30;;;;;;;;;;5034578;28;20748;-47
2021/10/27 08:18:12;;;;;;;1.25;1.15;;;;;;;;;;5034487;28;20289;-46
2021/10/27 08:20:38;;;;;;;1.25;1.15;;;;;;;;;;5034694;28;20178;-46
2021/10/27 08:23:07;;;;;;;1.85;1.33;;;;;;;;;;5026612;28;20199;-46
2021/10/27 08:25:43;;;;;;;2.08;1.30;;;;;;;;;;5028894;28;20256;-46
2021/10/27 08:28:14;;;;;;;1.35;1.25;;;;;;;;;;5025240;28;20186;-46
2021/10/27 08:30:46;;;;;;;1.70;1.45;;;;;;;;;;5034207;28;20267;-46
2021/10/27 08:36:04;;;;;;;1.40;1.30;;;;;;;;;;5037084;28;20456;-46
2021/10/27 08:38:30;;;;;;;1.30;1.15;;;;;;;;;;5037455;28;20175;-46
2021/10/27 08:40:57;;;;;;;1.45;1.35;;;;;;;;;;5038559;28;20187;-46
2021/10/27 08:43:26;;;;;;;1.95;1.17;;;;;;;;;;5037775;28;20617;-46
2021/10/27 08:45:53;;;;;;;1.20;1.10;;;;;;;;;;5037820;28;20219;-46
2021/10/27 08:48:19;;;;;;;2.05;1.33;;;;;;;;;;5037479;28;20448;-46
2021/10/27 08:50:45;;;;;;;1.48;1.05;;;;;;;;;;5038401;28;20199;-46
2021/10/27 08:53:14;;;;;;;2.00;1.23;;;;;;;;;;5037705;28;20171;-46
2021/10/27 08:55:41;;;;;;;1.05;0.95;;;;;;;;;;5037020;28;20266;-46
2021/10/27 08:58:08;;;;;;;1.38;1.20;;;;;;;;;;5037815;28;20178;-46
2021/10/27 09:00:40;;;;;;;1.27;1.13;;;;;;;;;;5038256;28;20183;-46
2021/10/27 09:03:57;;;;;;;1.35;1.20;;;;;;;;;;5036937;28;20593;-46
2021/10/27 09:06:08;;;;;;;1.50;1.00;;;;;;;;;;5039690;28;20219;-46
2021/10/27 09:33:27;;;;;;;1.35;1.20;;;;;;;;;;5037916;28;20226;-46
2021/10/27 09:34:23;;;;;;;1.00;1.00;;;;;;;;;;5036618;28;20197;-45
2021/10/27 09:40:01;;;;;;;1.10;1.10;;;;;;;;;;5036534;28;20172;-46
2021/10/27 10:05:08;;;;;;;1.38;1.15;;;;;;;;;;5036429;28;20332;-46
2021/10/27 10:07:36;;;;;;;1.00;1.00;;;;;;;;;;5036456;28;20183;-46
2021/10/27 10:10:03;;;;;;;1.27;1.10;;;;;;;;;;5036710;28;20175;-46
2021/10/27 10:12:32;;;;;;;1.92;1.20;;;;;;;;;;5037108;28;20175;-46
2021/10/27 10:14:58;;;;;;;0.88;0.88;;;;;;;;;;5036313;28;20255;-46
2021/10/27 10:17:25;;;;;;;1.08;0.98;;;;;;;;;;5035194;28;20504;-46
2021/10/27 10:19:51;;;;;;;1.30;1.20;;;;;;;;;;5036635;28;20230;-46
2021/10/27 10:22:28;;;;;;;1.20;1.10;;;;;;;;;;5036012;28;20180;-46
2021/10/27 10:24:55;;;;;;;1.38;1.27;;;;;;;;;;5019151;28;20200;-46
2021/10/27 10:27:40;;;;;;;1.10;1.00;;;;;;;;;;5023356;28;20278;-46
2021/10/27 10:30:24;;;;;;;1.67;1.08;;;;;;;;;;5036665;28;20216;-46
2021/10/27 10:33:07;;;;;;;2.13;1.20;;;;;;;;;;5032786;28;20207;-46
2021/10/27 10:36:06;;;;;;;1.00;0.90;;;;;;;;;;5026026;28;20274;-46
2021/10/27 10:39:27;;;;;;;1.48;1.10;;;;;;;;;;5036207;28;20188;-46
2021/10/27 11:02:00;;;;;;;1.42;1.10;;;;;;;;;;5035641;28;20183;-46
2021/10/27 11:27:10;;;;;;;0.95;0.95;;;;;;;;;;5035075;28;20302;-46
2021/10/27 11:40:15;;;;;;;1.30;1.20;;;;;;;;;;5035091;28;20538;-46
2021/10/27 11:48:01;;;;;;;1.13;1.02;;;;;;;;;;5034461;28;20188;-46
2021/10/27 11:50:31;;;;;;;1.27;1.00;;;;;;;;;;5015416;28;20199;-46
2021/10/27 11:52:57;;;;;;;1.00;1.00;;;;;;;;;;5025435;28;20254;-46
2021/10/27 11:55:28;;;;;;;1.15;1.05;;;;;;;;;;5020926;28;20275;-46
2021/10/27 11:57:54;;;;;;;1.00;1.00;;;;;;;;;;5025682;28;20203;-46
2021/10/27 12:03:27;;;;;;;1.00;0.95;;;;;;;;;;5034132;28;20199;-46
2021/10/27 12:08:48;;;;;;;1.00;1.00;;;;;;;;;;5033831;28;20179;-46
2021/10/27 12:11:31;;;;;;;0.85;0.85;;;;;;;;;;5028342;28;20563;-47
2021/10/27 12:14:22;;;;;;;1.10;1.00;;;;;;;;;;5022635;28;20175;-46
2021/10/27 12:19:22;;;;;;;1.17;1.15;;;;;;;;;;5034617;28;20188;-46
2021/10/27 12:22:03;;;;;;;0.90;0.90;;;;;;;;;;5034387;28;20288;-47
2021/10/27 12:24:31;;;;;;;0.80;0.80;;;;;;;;;;5033843;28;20641;-47
2021/10/27 12:27:06;;;;;;;1.30;1.20;;;;;;;;;;5034047;28;20183;-46
2021/10/27 12:29:34;;;;;;;0.80;0.80;;;;;;;;;;5029195;28;20186;-46
2021/10/27 12:32:04;;;;;;;0.80;0.80;;;;;;;;;;5034425;28;20179;-46
2021/10/27 12:34:30;;;;;;;0.98;0.98;;;;;;;;;;5033476;28;20542;-46
2021/10/27 12:36:58;;;;;;;0.82;0.80;;;;;;;;;;5021143;28;20198;-46
2021/10/27 12:39:37;;;;;;;0.98;0.82;;;;;;;;;;5033946;28;20190;-46
2021/10/27 12:42:08;;;;;;;0.93;0.93;;;;;;;;;;5034299;28;20258;-46
2021/10/27 12:44:43;;;;;;;0.80;0.80;;;;;;;;;;5026101;28;20208;-46
2021/10/27 12:47:14;;;;;;;0.80;0.80;;;;;;;;;;5027609;28;20552;-46
2021/10/27 12:49:45;;;;;;;1.02;0.80;;;;;;;;;;5033871;28;20211;-46
2021/10/27 12:52:29;;;;;;;0.95;0.90;;;;;;;;;;5033924;28;20681;-47
2021/10/27 12:55:07;;;;;;;1.10;1.00;;;;;;;;;;5033697;28;20189;-46
2021/10/27 12:57:47;;;;;;;1.00;1.00;;;;;;;;;;5034114;28;20187;-46
2021/10/27 13:00:14;;;;;;;1.00;1.00;;;;;;;;;;5030089;28;20204;-46
2021/10/27 13:02:47;;;;;;;0.60;0.60;;;;;;;;;;5020412;28;20317;-46
2021/10/27 13:05:25;;;;;;;0.90;0.90;;;;;;;;;;5033670;28;20804;-46
2021/10/27 13:07:58;;;;;;;1.13;1.02;;;;;;;;;;5034100;28;20164;-46
2021/10/27 13:22:01;;;;;;;1.02;0.98;;;;;;;;;;5036760;28;20175;-46
2021/10/27 13:32:17;;;;;;;2.35;1.00;;;;;;;;;;5036910;28;20287;-46
2021/10/27 13:34:43;;;;;;;1.88;1.05;;;;;;;;;;5035894;28;20168;-46
2021/10/27 13:37:10;;;;;;;4.28;1.10;;;;;;;;;;5035148;28;20212;-46
2021/10/27 13:39:36;;;;;;;2.80;1.15;;;;;;;;;;5031371;28;20172;-46
2021/10/27 13:42:10;;;;;;;2.13;1.23;;;;;;;;;;5036906;28;20176;-46
2021/10/27 13:44:44;;;;;;;3.63;1.30;;;;;;;;;;5036584;28;20277;-46
2021/10/27 13:47:27;;;;;;;3.15;1.17;;;;;;;;;;5035499;28;20719;-46
2021/10/27 13:57:41;;;;;;;4.50;1.45;;;;;;;;;;5037139;28;20271;-46
2021/10/27 14:06:22;;;;;;;3.00;1.30;;;;;;;;;;5035449;28;20622;-46
2021/10/27 14:13:59;;;;;;;1.60;1.10;;;;;;;;;;5036107;28;20180;-46
2021/10/27 15:20:38;;;;;;;2.67;1.20;;;;;;;;;;5035269;28;20198;-46
2021/10/27 15:31:29;;;;;;;6.25;1.38;;;;;;;;;;5034863;28;20199;-46
2021/10/27 15:36:44;;;;;;;4.20;1.90;;;;;;;;;;5034811;28;20173;-46
2021/10/27 15:44:54;;;;;;;7.18;2.50;;;;;;;;;;5033313;28;20198;-46
2021/10/27 15:52:50;;;;;;;4.55;2.70;;;;;;;;;;5034585;28;20179;-46
2021/10/27 15:55:16;;;;;;;2.70;2.03;;;;;;;;;;5033299;28;20184;-46
2021/10/27 15:57:42;;;;;;;5.75;2.53;;;;;;;;;;5027675;28;20263;-46
2021/10/27 16:00:08;;;;;;;4.53;2.00;;;;;;;;;;5026546;28;20211;-46
2021/10/27 16:02:35;;;;;;;2.85;1.67;;;;;;;;;;5034551;28;20618;-46
2021/10/27 16:05:01;;;;;;;5.50;2.00;;;;;;;;;;5033053;28;20518;-47
2021/10/27 16:07:30;;;;;;;3.42;2.30;;;;;;;;;;5029398;28;20195;-46
2021/10/27 16:10:03;;;;;;;4.28;2.00;;;;;;;;;;5033501;28;20211;-46
2021/10/27 16:12:29;;;;;;;2.72;1.98;;;;;;;;;;5031267;28;20176;-46
2021/10/27 16:14:56;;;;;;;4.72;2.08;;;;;;;;;;5026953;28;20238;-46
2021/10/27 16:17:22;;;;;;;3.50;2.28;;;;;;;;;;5027760;28;20195;-46
2021/10/27 16:19:48;;;;;;;5.68;1.80;;;;;;;;;;5029161;28;20198;-46
2021/10/27 16:22:15;;;;;;;3.97;2.00;;;;;;;;;;5030362;28;20222;-46
2021/10/27 16:24:41;;;;;;;4.63;1.98;;;;;;;;;;5028392;28;20627;-46
2021/10/27 16:27:08;;;;;;;2.65;1.98;;;;;;;;;;5041033;28;20242;-46
2021/10/27 16:29:34;;;;;;;4.75;2.13;;;;;;;;;;5027553;28;20198;-46
2021/10/27 16:32:01;;;;;;;3.25;1.85;;;;;;;;;;5032770;28;20171;-46
2021/10/27 16:34:26;;;;;;;9.48;2.22;;;;;;;;;;5031163;28;20184;-46
2021/10/27 16:36:53;;;;;;;5.10;2.63;;;;;;;;;;5026816;28;20495;-46
2021/10/27 16:39:20;;;;;;;3.78;1.75;;;;;;;;;;5025362;28;20177;-46
2021/10/27 16:41:46;;;;;;;4.60;1.77;;;;;;;;;;5032844;28;20233;-46
2021/10/27 16:44:12;;;;;;;4.93;1.65;;;;;;;;;;5027961;28;20187;-46
2021/10/27 16:46:39;;;;;;;3.25;1.83;;;;;;;;;;5026392;28;20211;-46
2021/10/27 16:49:05;;;;;;;4.35;1.60;;;;;;;;;;5026414;28;20676;-46
2021/10/27 16:51:32;;;;;;;7.15;1.67;;;;;;;;;;5028685;28;20558;-46
2021/10/27 16:54:00;;;;;;;9.70;2.10;;;;;;;;;;5028754;28;20179;-46
2021/10/27 16:56:27;;;;;;;5.35;2.17;;;;;;;;;;5028098;28;20184;-46
2021/10/27 16:58:53;;;;;;;6.63;2.42;;;;;;;;;;5033229;28;20187;-46
2021/10/27 17:01:20;;;;;;;5.13;1.90;;;;;;;;;;5030632;28;20212;-46
2021/10/27 17:03:46;;;;;;;8.45;2.10;;;;;;;;;;5030561;28;20206;-46
2021/10/27 17:06:13;;;;;;;5.03;2.20;;;;;;;;;;5032561;28;20249;-46
2021/10/27 17:08:39;;;;;;;3.08;1.70;;;;;;;;;;5029491;28;20210;-46
2021/10/27 17:11:06;;;;;;;5.63;1.65;;;;;;;;;;5033712;28;20218;-46
2021/10/27 17:13:33;;;;;;;2.78;1.70;;;;;;;;;;5038326;28;20192;-46
2021/10/27 17:15:59;;;;;;;5.15;1.80;;;;;;;;;;5032311;28;20591;-46
2021/10/27 17:18:31;;;;;;;6.07;1.70;;;;;;;;;;5028855;28;20188;-46
2021/10/27 17:20:58;;;;;;;8.18;2.40;;;;;;;;;;5029016;28;20186;-46
2021/10/27 17:23:29;;;;;;;5.50;1.60;;;;;;;;;;5031570;28;20190;-46
2021/10/27 17:25:55;;;;;;;3.25;1.75;;;;;;;;;;5033449;28;20527;-46
2021/10/27 17:28:21;;;;;;;4.30;1.90;;;;;;;;;;5028389;28;20215;-47
2021/10/27 17:30:48;;;;;;;5.80;1.75;;;;;;;;;;5035611;28;20203;-46
2021/10/27 17:33:17;;;;;;;3.63;1.70;;;;;;;;;;5035275;28;20337;-46
2021/10/27 17:35:44;;;;;;;4.03;1.90;;;;;;;;;;5031486;28;20470;-46
2021/10/27 17:38:12;;;;;;;4.40;2.05;;;;;;;;;;5037946;28;20683;-46
2021/10/27 17:40:44;;;;;;;3.20;1.90;;;;;;;;;;5033836;28;20596;-46
2021/10/27 17:43:10;;;;;;;3.50;1.60;;;;;;;;;;5030997;28;20191;-46
2021/10/27 17:45:42;;;;;;;3.65;1.60;;;;;;;;;;5031676;28;20317;-46
2021/10/27 17:48:14;;;;;;;3.90;1.60;;;;;;;;;;5043137;28;20183;-46
2021/10/27 17:58:38;;;;;;;2.92;1.27;;;;;;;;;;5030848;28;20198;-46
2021/10/27 18:01:06;;;;;;;2.33;1.58;;;;;;;;;;5031318;28;20551;-46
2021/10/27 18:03:33;;;;;;;3.20;1.80;;;;;;;;;;5033250;28;20282;-46
2021/10/27 18:05:59;;;;;;;2.15;1.60;;;;;;;;;;5041283;28;20211;-46
2021/10/27 18:08:26;;;;;;;2.72;1.50;;;;;;;;;;5034858;28;20503;-46
2021/10/27 18:10:56;;;;;;;2.53;1.48;;;;;;;;;;5036925;28;20176;-47
2021/10/27 18:13:29;;;;;;;2.03;1.50;;;;;;;;;;5034070;28;20172;-46
2021/10/27 18:16:06;;;;;;;4.40;1.83;;;;;;;;;;5033246;28;20291;-46
2021/10/27 18:18:39;;;;;;;1.77;1.40;;;;;;;;;;5023824;28;20211;-47
2021/10/27 18:21:12;;;;;;;2.10;1.40;;;;;;;;;;5033065;28;20191;-46
2021/10/27 18:23:45;;;;;;;3.33;1.60;;;;;;;;;;5031630;28;20187;-46
2021/10/27 18:26:32;;;;;;;2.90;1.75;;;;;;;;;;5032875;28;20687;-46
2021/10/27 18:37:21;;;;;;;3.00;1.60;;;;;;;;;;5033913;28;20202;-46
2021/10/27 18:40:06;;;;;;;2.30;1.48;;;;;;;;;;5034590;28;20241;-46
2021/10/27 18:42:37;;;;;;;2.58;1.60;;;;;;;;;;5025763;28;20172;-47
2021/10/27 18:45:04;;;;;;;2.60;1.60;;;;;;;;;;5030522;28;20214;-46
2021/10/27 18:47:32;;;;;;;2.58;1.33;;;;;;;;;;5033229;28;20233;-46
2021/10/27 18:49:58;;;;;;;3.03;1.42;;;;;;;;;;5030913;28;20179;-46
2021/10/27 18:52:41;;;;;;;3.47;1.25;;;;;;;;;;5028827;28;20266;-46
2021/10/27 18:55:27;;;;;;;2.13;1.30;;;;;;;;;;5035323;28;20210;-46
2021/10/27 19:00:53;;;;;;;2.15;1.55;;;;;;;;;;5015380;28;20192;-46
2021/10/27 19:03:32;;;;;;;3.42;1.48;;;;;;;;;;5027330;28;20249;-46
2021/10/27 19:11:32;;;;;;;3.40;1.58;;;;;;;;;;5033278;28;20692;-46
2021/10/27 19:14:14;;;;;;;1.73;1.40;;;;;;;;;;5034280;28;20463;-46
2021/10/27 19:16:40;;;;;;;1.75;1.45;;;;;;;;;;5035905;28;20190;-46
2021/10/27 19:19:06;;;;;;;1.40;1.30;;;;;;;;;;5032086;28;20180;-46
2021/10/27 19:21:33;;;;;;;1.60;1.50;;;;;;;;;;5026656;28;20682;-46
2021/10/27 19:24:04;;;;;;;1.38;1.23;;;;;;;;;;5035359;28;20204;-46
2021/10/27 19:26:38;;;;;;;1.75;1.60;;;;;;;;;;5029345;28;20204;-46
2021/10/27 19:29:13;;;;;;;2.05;1.35;;;;;;;;;;5029036;28;20315;-46
2021/10/27 20:23:04;;;;;;;134.20;107.68;;;;;;;;;;5015023;28;20199;-46
2021/10/27 20:28:40;;;;;;;384.17;330.75;;;;;;;;;;5021318;28;20453;-47
2021/10/27 20:51:27;;;;;;;260.30;230.65;;;;;;;;;;5032892;28;20183;-46
2021/10/27 20:53:19;;;;;;;259.58;227.75;;;;;;;;;;5031471;28;20184;-46
2021/10/27 20:55:46;;;;;;;261.42;224.15;;;;;;;;;;5032079;28;20184;-46
2021/10/27 21:00:57;;;;;;;250.75;219.95;;;;;;;;;;5033904;28;20188;-46
2021/10/27 21:04:02;;;;;;;234.23;205.98;;;;;;;;;;5029283;28;20227;-46
2021/10/27 21:14:23;;;;;;;220.10;190.25;;;;;;;;;;5028464;28;20530;-46
2021/10/27 21:16:49;;;;;;;205.07;179.70;;;;;;;;;;5020645;28;20176;-46